Time;durP1;ratioP1;P1;durP2;ratioP2;P2;SDS_P1;SDS_P2;PMS_P1;PMS_P2;Temp;Humidity;BMP_temperature;BMP_pressure;BME280_temperature;BME280_humidity;BME280_pressure;Samples;Min_cycle;Max_cycle;Signal;HPM_P1;HPM_P2
2023/07/06 00:00:20;;;;;;;6.13;1.52;;;13.20;99.90;;;;;;4995676;28;20119;-79
2023/07/06 00:02:47;;;;;;;5.82;1.75;;;13.20;99.90;;;;;;4994760;28;20365;-79
2023/07/06 00:05:14;;;;;;;7.25;2.30;;;13.10;99.90;;;;;;4995172;28;20057;-77
2023/07/06 00:07:41;;;;;;;5.32;1.30;;;13.10;99.90;;;;;;4995710;28;20425;-78
2023/07/06 00:10:08;;;;;;;7.70;2.00;;;13.00;99.90;;;;;;4995193;28;20042;-79
2023/07/06 00:12:35;;;;;;;4.88;1.40;;;13.00;99.90;;;;;;4995216;28;20089;-78
2023/07/06 00:17:48;;;;;;;9.15;1.50;;;12.90;99.90;;;;;;4995067;28;20038;-78
2023/07/06 00:20:15;;;;;;;4.05;1.45;;;12.80;99.90;;;;;;4999186;28;20037;-78
2023/07/06 00:22:41;;;;;;;4.40;1.33;;;12.80;99.90;;;;;;5015059;28;20045;-79
2023/07/06 00:25:08;;;;;;;5.60;1.35;;;12.80;99.90;;;;;;5014697;28;20476;-78
2023/07/06 00:27:35;;;;;;;7.57;1.65;;;12.70;99.90;;;;;;5015018;28;20041;-79
2023/07/06 00:30:15;;;;;;;6.82;1.65;;;12.70;99.90;;;;;;5006636;28;20081;-79
2023/07/06 00:32:41;;;;;;;4.78;1.30;;;12.60;99.90;;;;;;4978172;28;20050;-79
2023/07/06 00:35:10;;;;;;;8.77;1.80;;;12.60;99.90;;;;;;4978803;28;20137;-78
2023/07/06 00:37:38;;;;;;;10.68;1.60;;;12.60;99.90;;;;;;4995252;28;20113;-79
2023/07/06 00:40:08;;;;;;;3.88;1.38;;;12.60;99.90;;;;;;4995008;28;20042;-78
2023/07/06 00:42:35;;;;;;;6.50;1.70;;;12.50;99.90;;;;;;4978089;28;20211;-81
2023/07/06 00:45:04;;;;;;;4.10;1.40;;;12.50;99.90;;;;;;4993662;28;20042;-78
2023/07/06 00:47:31;;;;;;;4.47;1.50;;;12.50;99.90;;;;;;4978600;28;20053;-79
2023/07/06 00:49:58;;;;;;;4.70;1.60;;;12.40;99.90;;;;;;4977908;28;20077;-79
2023/07/06 00:52:24;;;;;;;3.83;1.30;;;12.40;99.90;;;;;;4994459;28;20042;-80
2023/07/06 00:54:52;;;;;;;4.93;1.42;;;12.40;99.90;;;;;;4977905;28;20038;-80
2023/07/06 00:57:19;;;;;;;6.82;2.00;;;12.40;99.90;;;;;;4994554;28;20055;-79
2023/07/06 00:59:46;;;;;;;5.07;1.50;;;12.30;99.90;;;;;;4994287;28;20046;-79
2023/07/06 01:02:13;;;;;;;11.38;2.00;;;12.30;99.90;;;;;;4995042;28;20385;-80
2023/07/06 01:04:40;;;;;;;8.65;2.10;;;12.30;99.90;;;;;;4994026;28;20057;-80
2023/07/06 01:07:06;;;;;;;8.57;1.60;;;12.20;99.90;;;;;;4994152;28;20042;-81
2023/07/06 01:09:33;;;;;;;3.25;1.17;;;12.20;99.90;;;;;;4994759;28;20042;-80
2023/07/06 01:12:02;;;;;;;4.05;1.30;;;12.10;99.90;;;;;;5007771;28;20054;-79
2023/07/06 01:14:30;;;;;;;5.07;1.48;;;12.10;99.90;;;;;;4995219;28;20039;-80
2023/07/06 01:16:57;;;;;;;6.82;1.55;;;12.10;99.90;;;;;;4994986;28;20107;-79
2023/07/06 01:19:23;;;;;;;5.43;1.40;;;12.10;99.90;;;;;;4994522;28;20046;-79
2023/07/06 01:21:50;;;;;;;3.75;1.30;;;12.10;99.90;;;;;;5010437;28;20050;-77
2023/07/06 01:24:18;;;;;;;11.02;1.25;;;12.00;99.90;;;;;;4993451;28;20042;-78
2023/07/06 01:26:44;;;;;;;5.45;1.45;;;12.00;99.90;;;;;;5012016;28;20042;-80
2023/07/06 01:29:11;;;;;;;8.13;1.88;;;12.00;99.90;;;;;;4998379;28;20116;-79
2023/07/06 01:31:38;;;;;;;5.88;1.50;;;12.00;99.90;;;;;;4997917;28;20038;-79
2023/07/06 01:34:05;;;;;;;6.13;1.58;;;12.00;99.90;;;;;;5014469;28;20050;-79
2023/07/06 01:36:34;;;;;;;3.28;1.20;;;11.90;99.90;;;;;;4998999;28;20053;-79
2023/07/06 01:39:01;;;;;;;9.02;1.70;;;11.90;99.90;;;;;;4997242;28;20450;-79
2023/07/06 01:41:28;;;;;;;6.68;1.45;;;11.90;99.90;;;;;;4998434;28;20104;-80
2023/07/06 01:43:54;;;;;;;6.75;1.58;;;11.80;99.90;;;;;;4997643;28;20046;-80
2023/07/06 01:46:23;;;;;;;5.85;1.20;;;11.80;99.90;;;;;;5012870;28;20101;-79
2023/07/06 01:48:49;;;;;;;5.78;1.45;;;11.80;99.90;;;;;;4997254;28;20374;-78
2023/07/06 01:51:18;;;;;;;7.18;1.83;;;11.70;99.90;;;;;;5012834;28;20050;-78
2023/07/06 01:53:45;;;;;;;5.32;1.27;;;11.70;99.90;;;;;;5013662;28;20038;-79
2023/07/06 01:56:12;;;;;;;7.50;1.63;;;11.70;99.90;;;;;;5013608;28;20145;-80
2023/07/06 01:58:38;;;;;;;11.18;1.70;;;11.70;99.90;;;;;;5013087;28;20354;-80
2023/07/06 02:01:05;;;;;;;6.05;1.58;;;11.60;99.90;;;;;;5013375;28;20061;-80
2023/07/06 02:03:32;;;;;;;5.82;1.65;;;11.60;99.90;;;;;;4997771;28;20053;-79
2023/07/06 02:05:59;;;;;;;5.40;1.50;;;11.60;99.90;;;;;;4997212;28;20461;-79
2023/07/06 02:08:26;;;;;;;5.35;1.50;;;11.60;99.90;;;;;;4997777;28;20043;-80
2023/07/06 02:10:52;;;;;;;4.65;1.40;;;11.60;99.90;;;;;;5012963;28;20551;-79
2023/07/06 02:13:20;;;;;;;7.65;1.75;;;11.60;99.90;;;;;;5013300;28;20046;-80
2023/07/06 02:15:47;;;;;;;5.13;1.88;;;11.60;99.90;;;;;;4998579;28;20445;-79
2023/07/06 02:18:13;;;;;;;3.80;1.30;;;11.50;99.90;;;;;;5013103;28;20070;-79
2023/07/06 02:20:40;;;;;;;9.23;1.40;;;11.50;99.90;;;;;;4997564;28;20039;-79
2023/07/06 02:23:08;;;;;;;10.25;1.48;;;11.50;99.90;;;;;;4996886;28;20038;-80
2023/07/06 02:25:36;;;;;;;8.00;1.83;;;11.40;99.90;;;;;;4997423;28;20425;-80
2023/07/06 02:28:03;;;;;;;7.32;1.98;;;11.40;99.90;;;;;;4996990;28;20042;-79
2023/07/06 02:30:30;;;;;;;4.25;1.23;;;11.40;99.90;;;;;;4997425;28;20042;-80
2023/07/06 02:32:56;;;;;;;3.90;1.58;;;11.30;99.90;;;;;;4996807;28;20050;-79
2023/07/06 02:35:23;;;;;;;6.03;1.33;;;11.30;99.90;;;;;;4996634;28;20065;-79
2023/07/06 02:37:50;;;;;;;4.65;1.55;;;11.20;99.90;;;;;;4996764;28;20046;-79
2023/07/06 02:40:17;;;;;;;5.15;1.30;;;11.20;99.90;;;;;;4996176;28;20046;-79
2023/07/06 02:42:44;;;;;;;5.47;1.63;;;11.30;99.90;;;;;;4997785;28;20464;-80
2023/07/06 02:45:11;;;;;;;5.13;1.35;;;11.30;99.90;;;;;;4996033;28;20480;-80
2023/07/06 02:47:38;;;;;;;6.07;1.17;;;11.30;99.90;;;;;;4997299;28;20047;-78
2023/07/06 02:50:04;;;;;;;9.35;1.27;;;11.30;99.90;;;;;;4997187;28;20500;-80
2023/07/06 02:52:31;;;;;;;3.28;1.10;;;11.30;99.90;;;;;;4996838;28;20043;-79
2023/07/06 02:54:58;;;;;;;3.72;1.20;;;11.30;99.90;;;;;;4979928;28;20464;-78
2023/07/06 02:57:25;;;;;;;7.80;1.85;;;11.30;99.90;;;;;;4996384;28;20046;-79
2023/07/06 02:59:56;;;;;;;7.22;1.27;;;11.30;99.90;;;;;;4995436;28;20404;-79
2023/07/06 03:02:23;;;;;;;5.80;1.38;;;11.30;99.90;;;;;;4997105;28;20109;-78
2023/07/06 03:04:53;;;;;;;4.13;1.33;;;11.30;99.90;;;;;;4996163;28;20046;-77
2023/07/06 03:07:19;;;;;;;3.70;1.33;;;11.30;99.90;;;;;;4996081;28;20057;-78
2023/07/06 03:09:46;;;;;;;4.78;1.52;;;11.30;99.90;;;;;;4996421;28;20125;-79
2023/07/06 03:12:14;;;;;;;5.43;1.30;;;11.20;99.90;;;;;;4995121;28;20057;-78
2023/07/06 03:14:41;;;;;;;6.60;1.30;;;11.20;99.90;;;;;;4996327;28;20039;-77
2023/07/06 03:17:08;;;;;;;6.45;1.15;;;11.10;99.90;;;;;;4996628;28;20050;-79
2023/07/06 03:19:38;;;;;;;6.55;1.73;;;11.10;99.90;;;;;;4994888;28;20104;-79
2023/07/06 03:22:05;;;;;;;3.78;1.23;;;11.10;99.90;;;;;;4995876;28;20054;-81
2023/07/06 03:24:32;;;;;;;6.07;1.25;;;11.10;99.90;;;;;;4996395;28;20039;-80
2023/07/06 03:27:01;;;;;;;5.13;1.30;;;11.10;99.90;;;;;;4996414;28;20350;-80
2023/07/06 03:29:30;;;;;;;3.47;1.10;;;11.00;99.90;;;;;;5011734;28;20053;-79
2023/07/06 03:31:57;;;;;;;4.28;1.27;;;11.00;99.90;;;;;;4995777;28;20038;-78
2023/07/06 03:34:24;;;;;;;2.88;1.00;;;11.00;99.90;;;;;;5011815;28;20460;-79
2023/07/06 03:36:52;;;;;;;5.97;1.20;;;11.00;99.90;;;;;;4996137;28;20038;-77
2023/07/06 03:39:18;;;;;;;6.00;1.38;;;11.00;99.90;;;;;;4995238;28;20113;-78
2023/07/06 03:41:45;;;;;;;4.10;1.13;;;11.00;99.90;;;;;;4996068;28;20042;-79
2023/07/06 03:44:12;;;;;;;3.15;1.13;;;11.00;99.90;;;;;;5011480;28;20042;-79
2023/07/06 03:46:40;;;;;;;4.82;1.33;;;11.00;99.90;;;;;;5011031;28;20100;-80
2023/07/06 03:49:10;;;;;;;4.63;1.42;;;11.00;99.90;;;;;;5010496;28;20038;-79
2023/07/06 03:51:37;;;;;;;2.50;1.00;;;11.00;99.90;;;;;;4995237;28;20038;-79
2023/07/06 03:54:06;;;;;;;10.25;1.40;;;10.90;99.90;;;;;;4996496;28;20081;-78
2023/07/06 03:56:33;;;;;;;8.63;1.30;;;10.90;99.90;;;;;;4996003;28;20046;-79
2023/07/06 03:59:01;;;;;;;6.35;1.40;;;10.90;99.90;;;;;;5010567;28;20052;-79
2023/07/06 04:01:27;;;;;;;6.38;1.50;;;10.90;99.90;;;;;;4996138;28;20134;-79
2023/07/06 04:03:55;;;;;;;4.43;1.20;;;10.90;99.90;;;;;;4996026;28;20042;-79
2023/07/06 04:06:23;;;;;;;6.38;1.48;;;10.90;99.90;;;;;;4995538;28;20116;-79
2023/07/06 04:08:50;;;;;;;7.75;1.40;;;10.90;99.90;;;;;;4995791;28;20141;-79
2023/07/06 04:11:16;;;;;;;5.07;1.40;;;10.90;99.90;;;;;;4994812;28;20054;-79
2023/07/06 04:13:43;;;;;;;3.65;1.15;;;10.90;99.90;;;;;;4994913;28;20046;-79
2023/07/06 04:16:10;;;;;;;8.65;1.75;;;10.90;99.90;;;;;;4996027;28;20137;-79
2023/07/06 04:18:37;;;;;;;1.73;0.95;;;10.90;99.90;;;;;;4995023;28;20046;-79
2023/07/06 04:21:03;;;;;;;4.95;1.30;;;10.90;99.90;;;;;;5005414;28;20050;-81
2023/07/06 04:23:30;;;;;;;7.15;1.40;;;10.90;99.90;;;;;;5015097;28;20404;-78
2023/07/06 04:28:43;;;;;;;9.48;1.38;;;10.90;99.90;;;;;;5015306;28;20050;-79
2023/07/06 04:31:15;;;;;;;3.75;1.23;;;10.90;99.90;;;;;;5014089;28;20345;-78
2023/07/06 04:33:45;;;;;;;7.82;1.60;;;10.90;99.90;;;;;;5015043;28;20045;-78
2023/07/06 04:36:13;;;;;;;4.85;1.27;;;11.00;99.90;;;;;;5015139;28;20117;-79
2023/07/06 04:38:39;;;;;;;5.88;1.40;;;10.90;99.90;;;;;;5014246;28;20080;-79
2023/07/06 04:41:08;;;;;;;6.28;1.38;;;11.00;99.90;;;;;;5014753;28;20428;-78
2023/07/06 04:43:34;;;;;;;8.05;1.50;;;11.00;99.90;;;;;;5015634;28;20133;-78
2023/07/06 04:46:02;;;;;;;5.28;1.20;;;11.00;99.90;;;;;;5014131;28;20049;-79
2023/07/06 04:48:29;;;;;;;4.93;1.55;;;11.10;99.90;;;;;;4997517;28;20412;-79
2023/07/06 04:50:56;;;;;;;5.85;1.50;;;11.20;99.90;;;;;;4997098;28;20053;-78
2023/07/06 04:53:23;;;;;;;10.10;1.58;;;11.20;99.90;;;;;;5015027;28;20042;-78
2023/07/06 04:55:50;;;;;;;4.30;1.48;;;11.30;99.90;;;;;;4998491;28;20080;-79
2023/07/06 04:58:17;;;;;;;7.97;1.55;;;11.30;99.90;;;;;;5014385;28;20061;-78
2023/07/06 05:00:45;;;;;;;6.65;1.65;;;11.50;99.90;;;;;;5014552;28;20061;-78
2023/07/06 05:03:12;;;;;;;8.07;1.50;;;11.60;99.90;;;;;;5018755;28;20045;-79
2023/07/06 05:05:40;;;;;;;6.70;1.75;;;11.70;99.90;;;;;;5005217;28;20467;-79
2023/07/06 05:08:07;;;;;;;4.13;1.40;;;11.90;99.90;;;;;;4998867;28;20038;-79
2023/07/06 05:10:34;;;;;;;6.75;1.52;;;12.10;99.90;;;;;;4998446;28;20121;-79
2023/07/06 05:13:01;;;;;;;4.35;1.50;;;12.30;99.90;;;;;;4998495;28;20121;-79
2023/07/06 05:15:28;;;;;;;4.78;1.70;;;12.40;99.90;;;;;;4998894;28;20055;-80
2023/07/06 05:17:55;;;;;;;4.47;1.63;;;12.60;99.90;;;;;;4998122;28;20050;-78
2023/07/06 05:20:22;;;;;;;6.35;1.30;;;12.70;99.90;;;;;;5003240;28;20041;-79
2023/07/06 05:22:48;;;;;;;6.78;1.77;;;12.90;99.90;;;;;;5001390;28;20049;-78
2023/07/06 05:25:17;;;;;;;5.82;1.73;;;13.10;99.90;;;;;;5017454;28;20483;-78
2023/07/06 05:27:43;;;;;;;7.60;1.80;;;13.30;99.90;;;;;;5018074;28;20081;-78
2023/07/06 05:30:10;;;;;;;6.05;1.58;;;13.40;99.90;;;;;;5017905;28;20115;-79
2023/07/06 05:32:37;;;;;;;5.45;1.67;;;13.60;99.90;;;;;;5017479;28;20414;-79
2023/07/06 05:35:05;;;;;;;7.05;1.52;;;13.80;99.90;;;;;;5018346;28;20042;-79
2023/07/06 05:37:33;;;;;;;7.20;1.60;;;13.90;99.90;;;;;;5018412;28;20408;-79
2023/07/06 05:40:04;;;;;;;5.43;1.63;;;14.10;99.90;;;;;;5018206;28;20049;-79
2023/07/06 05:42:31;;;;;;;6.43;1.38;;;14.30;99.90;;;;;;5018633;28;20045;-78
2023/07/06 05:44:58;;;;;;;4.63;1.50;;;14.40;99.90;;;;;;5017082;28;20411;-78
2023/07/06 05:47:24;;;;;;;5.40;1.53;;;14.50;99.90;;;;;;5000859;28;20116;-79
2023/07/06 05:49:51;;;;;;;6.07;1.75;;;14.50;99.90;;;;;;5017533;28;20052;-80
2023/07/06 05:52:18;;;;;;;7.40;1.40;;;14.40;99.90;;;;;;5000123;28;20116;-79
2023/07/06 05:54:45;;;;;;;9.57;1.98;;;14.40;99.90;;;;;;5017898;28;20049;-80
2023/07/06 05:57:13;;;;;;;7.32;1.30;;;14.50;99.90;;;;;;5017837;28;20079;-79
2023/07/06 05:59:41;;;;;;;5.35;1.50;;;14.50;99.90;;;;;;5016893;28;20055;-79
2023/07/06 06:02:08;;;;;;;12.90;1.50;;;14.40;99.90;;;;;;5017786;28;20100;-79
2023/07/06 06:04:37;;;;;;;5.60;1.77;;;14.50;99.90;;;;;;5017268;28;20107;-79
2023/07/06 06:07:06;;;;;;;3.80;1.65;;;14.50;99.90;;;;;;5017894;28;20511;-79
2023/07/06 06:09:33;;;;;;;8.05;1.38;;;14.70;99.90;;;;;;5017135;28;20096;-79
2023/07/06 06:12:00;;;;;;;9.23;2.45;;;15.00;99.90;;;;;;5016459;28;20109;-79
2023/07/06 06:14:27;;;;;;;5.13;1.42;;;15.10;99.90;;;;;;5017747;28;20157;-78
2023/07/06 06:16:54;;;;;;;7.93;1.88;;;15.30;99.90;;;;;;5017558;28;20038;-79
2023/07/06 06:19:21;;;;;;;7.40;1.75;;;15.40;99.90;;;;;;5016291;28;20080;-78
2023/07/06 06:21:49;;;;;;;4.65;1.50;;;15.50;99.90;;;;;;5000513;28;20425;-80
2023/07/06 06:24:17;;;;;;;4.72;1.50;;;15.70;99.90;;;;;;4986554;28;20113;-79
2023/07/06 06:26:45;;;;;;;6.63;1.50;;;15.70;99.90;;;;;;4977121;28;20056;-80
2023/07/06 06:29:12;;;;;;;8.43;1.73;;;15.80;99.90;;;;;;4990513;28;20073;-78
2023/07/06 06:31:38;;;;;;;6.57;1.67;;;15.90;99.90;;;;;;4997106;28;20066;-80
2023/07/06 06:34:05;;;;;;;6.22;1.77;;;16.10;99.90;;;;;;4996669;28;20039;-79
2023/07/06 06:36:32;;;;;;;7.10;1.88;;;16.20;99.90;;;;;;4997209;28;20035;-80
2023/07/06 06:38:59;;;;;;;6.60;1.50;;;16.40;99.90;;;;;;4995644;28;20077;-79
2023/07/06 06:41:25;;;;;;;7.28;1.70;;;16.60;99.90;;;;;;4996633;28;20104;-78
2023/07/06 06:43:52;;;;;;;4.43;1.70;;;17.00;99.90;;;;;;4997133;28;20046;-80
2023/07/06 06:46:19;;;;;;;6.35;1.77;;;17.20;99.90;;;;;;4996264;28;20074;-81
2023/07/06 06:48:45;;;;;;;8.50;1.80;;;17.10;99.90;;;;;;4997235;28;20046;-81
2023/07/06 06:51:12;;;;;;;7.15;1.70;;;17.10;99.90;;;;;;4996323;28;20042;-80
2023/07/06 06:53:39;;;;;;;11.75;1.63;;;17.20;99.90;;;;;;4996503;28;20077;-80
2023/07/06 06:56:06;;;;;;;5.30;1.60;;;17.40;99.90;;;;;;4997032;28;20069;-77
2023/07/06 06:58:33;;;;;;;6.82;1.40;;;17.50;99.90;;;;;;4996588;28;20065;-80
2023/07/06 07:01:00;;;;;;;9.20;1.70;;;17.60;99.90;;;;;;4997162;28;20461;-80
2023/07/06 07:03:28;;;;;;;8.02;1.63;;;17.70;99.90;;;;;;4996197;28;20125;-81
2023/07/06 07:05:56;;;;;;;7.93;1.60;;;17.70;99.90;;;;;;4996329;28;20125;-80
2023/07/06 07:08:23;;;;;;;5.88;1.48;;;17.70;99.90;;;;;;4997057;28;20052;-79
2023/07/06 07:10:50;;;;;;;13.35;1.92;;;17.70;99.90;;;;;;4996310;28;20054;-82
2023/07/06 07:13:16;;;;;;;5.78;1.70;;;18.00;99.90;;;;;;4996333;28;20126;-81
2023/07/06 07:15:43;;;;;;;6.25;1.42;;;18.00;99.90;;;;;;4996558;28;20042;-78
2023/07/06 07:18:10;;;;;;;6.22;1.70;;;18.20;99.90;;;;;;4996380;28;20066;-78
2023/07/06 07:20:37;;;;;;;5.22;1.63;;;18.20;99.90;;;;;;4996214;28;20046;-79
2023/07/06 07:23:05;;;;;;;7.35;1.60;;;18.30;99.90;;;;;;4996436;28;20042;-81
2023/07/06 07:25:32;;;;;;;5.75;1.50;;;18.40;99.90;;;;;;4978739;28;20046;-79
2023/07/06 07:27:59;;;;;;;5.32;1.50;;;18.50;99.90;;;;;;4996538;28;20445;-80
2023/07/06 07:30:26;;;;;;;8.27;1.52;;;18.80;99.90;;;;;;4996041;28;20038;-82
2023/07/06 07:32:53;;;;;;;8.18;1.67;;;18.80;99.90;;;;;;4995321;28;20129;-84
2023/07/06 07:35:21;;;;;;;6.22;1.60;;;18.90;99.90;;;;;;4979040;28;20452;-84
2023/07/06 07:37:50;;;;;;;8.38;1.70;;;18.70;99.90;;;;;;4978447;28;20195;-83
2023/07/06 07:40:18;;;;;;;4.68;1.33;;;18.70;99.90;;;;;;4979080;28;20108;-83
2023/07/06 07:42:46;;;;;;;4.03;1.38;;;18.70;99.90;;;;;;4979740;28;20104;-81
2023/07/06 07:45:14;;;;;;;6.97;1.65;;;18.90;99.90;;;;;;4978804;28;20428;-79
2023/07/06 07:47:41;;;;;;;4.90;1.95;;;18.90;99.90;;;;;;4996111;28;20460;-79
2023/07/06 07:50:08;;;;;;;5.22;1.40;;;18.90;99.90;;;;;;4995566;28;20042;-77
2023/07/06 07:52:35;;;;;;;6.63;1.55;;;18.90;99.90;;;;;;4995581;28;20073;-78
2023/07/06 07:55:01;;;;;;;5.90;1.67;;;19.00;99.90;;;;;;4995851;28;20049;-80
2023/07/06 07:57:30;;;;;;;5.57;1.50;;;19.00;99.90;;;;;;4996370;28;20116;-79
2023/07/06 07:59:57;;;;;;;5.15;1.50;;;19.00;99.90;;;;;;4991413;28;20065;-80
2023/07/06 08:02:23;;;;;;;6.10;1.60;;;19.00;99.90;;;;;;4982150;28;20074;-80
2023/07/06 08:04:50;;;;;;;4.50;1.33;;;19.30;99.90;;;;;;4983376;28;20521;-80
2023/07/06 08:07:17;;;;;;;4.22;1.20;;;19.50;99.90;;;;;;4991052;28;20407;-79
2023/07/06 08:09:44;;;;;;;5.53;1.50;;;19.40;99.90;;;;;;4995140;28;20034;-78
2023/07/06 08:12:11;;;;;;;5.22;1.40;;;19.30;99.90;;;;;;4994510;28;20077;-78
2023/07/06 08:14:38;;;;;;;5.80;1.60;;;19.40;99.90;;;;;;4995346;28;20523;-79
2023/07/06 08:17:04;;;;;;;5.93;1.40;;;19.60;99.90;;;;;;4996083;28;20046;-78
2023/07/06 08:19:36;;;;;;;4.70;1.30;;;19.70;99.90;;;;;;4994621;28;20101;-79
2023/07/06 08:22:23;;;;;;;5.43;1.50;;;19.90;99.90;;;;;;4976172;28;20054;-78
2023/07/06 08:24:49;;;;;;;3.95;1.20;;;20.20;99.90;;;;;;4975716;28;20463;-80
2023/07/06 08:27:16;;;;;;;4.38;1.30;;;20.30;99.90;;;;;;4976208;28;20120;-79
2023/07/06 08:29:46;;;;;;;7.13;1.63;;;19.80;99.90;;;;;;4975939;28;20053;-78
2023/07/06 08:32:15;;;;;;;5.00;1.40;;;19.50;99.90;;;;;;4975439;28;20101;-79
2023/07/06 08:34:46;;;;;;;6.28;1.40;;;19.40;99.90;;;;;;4976115;28;20039;-79
2023/07/06 08:37:13;;;;;;;4.05;1.52;;;19.40;99.90;;;;;;4975928;28;20098;-78
2023/07/06 08:39:39;;;;;;;4.43;1.30;;;19.40;99.90;;;;;;4974925;28;20051;-81
2023/07/06 08:42:08;;;;;;;3.92;1.30;;;19.40;99.90;;;;;;4975938;28;20071;-79
2023/07/06 08:44:36;;;;;;;4.05;1.33;;;19.60;99.90;;;;;;4974915;28;20055;-80
2023/07/06 08:47:05;;;;;;;5.88;1.33;;;19.60;99.90;;;;;;4975025;28;20082;-79
2023/07/06 08:49:32;;;;;;;5.40;1.70;;;19.60;99.90;;;;;;4975776;28;20047;-78
2023/07/06 08:52:03;;;;;;;6.35;1.58;;;19.50;99.90;;;;;;4975028;28;20051;-80
2023/07/06 08:54:30;;;;;;;6.05;1.83;;;19.50;99.90;;;;;;4976026;28;20093;-79
2023/07/06 08:56:59;;;;;;;6.07;1.60;;;19.50;99.90;;;;;;4977739;28;20500;-79
2023/07/06 08:59:26;;;;;;;7.80;1.70;;;19.40;99.90;;;;;;4988712;28;20050;-79
2023/07/06 09:01:53;;;;;;;7.35;1.60;;;19.50;99.90;;;;;;4992368;28;20039;-78
2023/07/06 09:04:22;;;;;;;5.75;1.27;;;19.90;99.90;;;;;;4980940;28;20514;-80
2023/07/06 09:06:49;;;;;;;4.82;1.40;;;20.50;99.90;;;;;;4976007;28;20050;-79
2023/07/06 09:09:16;;;;;;;6.20;1.45;;;20.40;99.90;;;;;;4975512;28;20058;-79
2023/07/06 09:11:43;;;;;;;7.28;1.48;;;20.50;99.90;;;;;;4969712;28;20046;-80
2023/07/06 09:14:10;;;;;;;7.90;1.50;;;20.60;99.90;;;;;;4975672;28;20438;-78
2023/07/06 09:16:39;;;;;;;7.05;1.50;;;20.80;99.90;;;;;;4975516;28;20047;-78
2023/07/06 09:19:05;;;;;;;4.18;1.40;;;20.90;99.90;;;;;;4987281;28;20338;-77
2023/07/06 09:21:32;;;;;;;4.75;1.40;;;20.90;99.90;;;;;;4980779;28;20047;-77
2023/07/06 09:23:59;;;;;;;6.00;1.60;;;20.80;99.90;;;;;;4990099;28;20039;-78
2023/07/06 09:26:27;;;;;;;4.32;1.58;;;20.70;99.90;;;;;;4994028;28;20148;-78
2023/07/06 09:28:59;;;;;;;5.38;1.50;;;20.30;99.90;;;;;;4994517;28;20477;-78
2023/07/06 09:31:26;;;;;;;6.60;1.65;;;20.20;99.90;;;;;;4993762;28;20485;-76
2023/07/06 09:33:53;;;;;;;4.68;1.40;;;20.60;99.90;;;;;;4994604;28;20462;-78
2023/07/06 09:36:19;;;;;;;7.40;1.40;;;21.20;99.90;;;;;;5010344;28;20096;-78
2023/07/06 09:38:47;;;;;;;3.97;1.30;;;21.20;99.90;;;;;;4993782;28;20416;-77
2023/07/06 09:41:13;;;;;;;5.50;1.38;;;21.10;99.90;;;;;;4994663;28;20042;-79
2023/07/06 09:43:40;;;;;;;6.68;1.52;;;21.00;99.90;;;;;;4995357;28;20104;-77
2023/07/06 09:46:07;;;;;;;3.83;1.35;;;20.70;99.90;;;;;;4993715;28;20046;-78
2023/07/06 09:48:37;;;;;;;5.07;1.50;;;20.50;99.90;;;;;;4997505;28;20043;-78
2023/07/06 09:51:06;;;;;;;5.43;1.67;;;20.30;99.90;;;;;;4997260;28;20457;-77
2023/07/06 09:53:33;;;;;;;5.65;1.60;;;20.10;99.90;;;;;;4998441;28;20089;-76
2023/07/06 09:55:59;;;;;;;7.00;1.83;;;19.90;99.90;;;;;;4998479;28;20099;-79
2023/07/06 09:58:26;;;;;;;5.75;1.50;;;19.80;99.90;;;;;;4997140;28;20035;-78
2023/07/06 10:00:53;;;;;;;6.75;1.70;;;19.80;99.90;;;;;;4998309;28;20485;-78
2023/07/06 10:03:20;;;;;;;6.65;1.85;;;19.80;99.90;;;;;;4997984;28;20358;-77
2023/07/06 10:05:47;;;;;;;6.90;1.67;;;20.20;99.90;;;;;;4997108;28;20039;-77
2023/07/06 10:08:14;;;;;;;8.90;1.80;;;20.30;99.90;;;;;;4998524;28;20453;-78
2023/07/06 10:10:43;;;;;;;5.75;1.80;;;20.70;99.90;;;;;;4997317;28;20145;-77
2023/07/06 10:13:09;;;;;;;9.50;1.73;;;20.80;99.90;;;;;;4996776;28;20050;-77
2023/07/06 10:15:37;;;;;;;5.45;1.60;;;20.80;99.90;;;;;;4997698;28;20051;-76
2023/07/06 10:18:04;;;;;;;6.28;1.60;;;20.60;99.90;;;;;;4996246;28;20374;-78
2023/07/06 10:20:31;;;;;;;5.18;1.70;;;20.50;99.90;;;;;;4997120;28;20040;-79
2023/07/06 10:22:58;;;;;;;5.00;1.65;;;20.30;99.90;;;;;;4997563;28;20072;-79
2023/07/06 10:25:25;;;;;;;7.25;1.77;;;20.40;99.90;;;;;;4996684;28;20429;-78
2023/07/06 10:27:51;;;;;;;5.70;1.73;;;20.10;99.90;;;;;;4997536;28;20046;-78
2023/07/06 10:30:19;;;;;;;5.55;1.80;;;20.10;99.90;;;;;;4997210;28;20102;-79
2023/07/06 10:32:46;;;;;;;5.35;1.70;;;20.00;99.90;;;;;;4996841;28;20118;-79
2023/07/06 10:35:13;;;;;;;5.88;2.03;;;20.40;99.90;;;;;;4997590;28;20070;-77
2023/07/06 10:37:42;;;;;;;6.75;1.55;;;20.90;99.90;;;;;;4996582;28;20039;-77
2023/07/06 10:40:10;;;;;;;4.30;1.48;;;21.30;99.90;;;;;;4996874;28;20081;-79
2023/07/06 10:42:36;;;;;;;5.28;1.60;;;21.60;99.90;;;;;;4981148;28;20043;-78
2023/07/06 10:45:03;;;;;;;6.55;1.42;;;21.80;99.90;;;;;;4981374;28;20454;-78
2023/07/06 10:47:31;;;;;;;8.02;1.60;;;22.30;99.90;;;;;;4996430;28;20046;-79
2023/07/06 10:50:00;;;;;;;7.00;1.83;;;22.50;99.90;;;;;;4993433;28;20346;-77
2023/07/06 10:52:26;;;;;;;5.03;1.65;;;22.90;99.90;;;;;;4996145;28;20050;-78
2023/07/06 10:54:53;;;;;;;4.00;1.35;;;22.60;99.90;;;;;;4997132;28;20038;-76
2023/07/06 10:57:20;;;;;;;7.32;1.65;;;22.50;99.90;;;;;;4993661;28;20067;-77
2023/07/06 10:59:52;;;;;;;4.25;1.45;;;22.40;99.90;;;;;;4993538;28;20050;-77
2023/07/06 11:02:18;;;;;;;;;;;22.30;99.90;;;;;;4997177;28;20047;-76
2023/07/06 11:04:46;;;;;;;5.15;1.60;;;22.20;99.90;;;;;;4995957;28;19922;-77
2023/07/06 11:07:14;;;;;;;4.97;1.65;;;22.30;99.90;;;;;;4996613;28;20064;-77
2023/07/06 11:09:40;;;;;;;5.63;1.50;;;22.50;99.90;;;;;;4996371;28;20050;-79
2023/07/06 11:12:08;;;;;;;6.53;1.70;;;22.50;99.90;;;;;;4994925;28;20351;-78
2023/07/06 11:14:36;;;;;;;4.80;1.58;;;22.40;99.90;;;;;;4983678;28;20102;-79
2023/07/06 11:17:03;;;;;;;4.07;1.40;;;22.40;99.90;;;;;;4991996;28;20362;-78
2023/07/06 11:19:29;;;;;;;6.03;1.73;;;22.60;99.90;;;;;;4995315;28;20046;-79
2023/07/06 11:21:56;;;;;;;6.82;1.55;;;22.70;99.90;;;;;;4999992;28;20118;-78
2023/07/06 11:24:23;;;;;;;6.35;1.80;;;23.40;99.90;;;;;;4995405;28;20142;-78
2023/07/06 11:26:50;;;;;;;6.60;1.95;;;23.30;99.90;;;;;;4996593;28;20089;-78
2023/07/06 11:29:17;;;;;;;5.47;1.60;;;23.00;99.90;;;;;;4988472;28;20102;-78
2023/07/06 11:31:44;;;;;;;4.35;1.50;;;22.90;99.90;;;;;;4978539;28;20066;-77
2023/07/06 11:34:10;;;;;;;6.20;1.73;;;22.70;99.90;;;;;;4976596;28;20421;-79
2023/07/06 11:36:39;;;;;;;6.60;1.90;;;22.30;99.90;;;;;;4976798;28;20067;-79
2023/07/06 11:39:06;;;;;;;6.15;1.77;;;22.10;99.90;;;;;;4993162;28;20206;-77
2023/07/06 11:41:32;;;;;;;5.10;1.77;;;22.00;99.90;;;;;;4996541;28;20062;-78
2023/07/06 11:43:59;;;;;;;6.97;1.90;;;22.10;99.90;;;;;;4996139;28;20038;-80
2023/07/06 11:46:28;;;;;;;6.30;1.52;;;22.40;99.90;;;;;;4994427;28;20042;-78
2023/07/06 11:48:55;;;;;;;8.90;2.30;;;23.30;99.90;;;;;;4987936;28;20126;-78
2023/07/06 11:51:22;;;;;;;5.80;2.00;;;24.40;99.90;;;;;;4994141;28;20046;-80
2023/07/06 11:56:22;;;;;;;4.85;1.90;;;24.40;99.90;;;;;;4995961;28;20433;-80
2023/07/06 11:58:56;;;;;;;7.45;1.83;;;23.90;99.90;;;;;;4994691;28;20601;-76
2023/07/06 12:01:46;;;;;;;6.97;2.30;;;24.00;99.90;;;;;;4996218;28;20069;-79
2023/07/06 12:04:09;;;;;;;6.80;2.13;;;24.00;99.90;;;;;;4995594;28;20050;-78
2023/07/06 12:06:37;;;;;;;6.80;2.20;;;24.00;99.90;;;;;;4995090;28;20046;-77
2023/07/06 12:09:06;;;;;;;6.35;2.08;;;25.30;99.90;;;;;;4994957;28;20141;-79
2023/07/06 12:11:32;;;;;;;6.93;2.20;;;25.80;99.90;;;;;;4988385;28;20070;-78
2023/07/06 12:13:59;;;;;;;7.60;2.08;;;26.20;99.00;;;;;;4986265;28;20042;-80
2023/07/06 12:16:27;;;;;;;6.60;2.30;;;25.90;98.40;;;;;;4975441;28;20124;-80
2023/07/06 12:18:55;;;;;;;6.03;2.33;;;25.50;98.10;;;;;;4994599;28;20076;-80
2023/07/06 12:21:22;;;;;;;5.53;1.98;;;25.30;98.70;;;;;;4978465;28;20053;-79
2023/07/06 12:23:49;;;;;;;8.00;2.20;;;25.80;98.40;;;;;;4995431;28;20038;-80
2023/07/06 12:26:16;;;;;;;6.15;2.10;;;26.20;96.70;;;;;;4994577;28;20098;-78
2023/07/06 12:28:42;;;;;;;6.25;2.25;;;26.70;95.40;;;;;;4995499;28;20073;-81
2023/07/06 12:31:09;;;;;;;5.43;2.10;;;27.10;95.70;;;;;;4994508;28;20050;-81
2023/07/06 12:33:36;;;;;;;7.22;2.42;;;27.80;95.30;;;;;;4995521;28;20057;-79
2023/07/06 12:36:04;;;;;;;8.63;2.38;;;28.30;92.60;;;;;;4978285;28;20125;-78
2023/07/06 12:38:30;;;;;;;7.93;2.30;;;28.20;92.20;;;;;;4994452;28;20050;-79
2023/07/06 12:40:57;;;;;;;5.63;2.28;;;27.60;91.70;;;;;;4995494;28;20070;-80
2023/07/06 12:43:24;;;;;;;5.75;2.28;;;27.20;91.90;;;;;;4995382;28;20330;-81
2023/07/06 12:45:53;;;;;;;4.70;2.00;;;27.20;92.60;;;;;;4994221;28;20066;-77
2023/07/06 12:48:20;;;;;;;7.00;2.35;;;27.40;92.70;;;;;;4994954;28;20364;-81
2023/07/06 12:50:49;;;;;;;6.70;2.47;;;27.60;91.40;;;;;;4994969;28;20049;-78
2023/07/06 12:53:22;;;;;;;6.10;2.30;;;27.80;92.10;;;;;;4994070;28;20060;-77
2023/07/06 12:55:52;;;;;;;7.47;2.47;;;28.10;92.50;;;;;;4989288;28;20077;-81